sensor_id;sensor_type;location;lat;lon;timestamp;pressure;altitude;pressure_sealevel;temperature;humidity
45247;BME280;31529;51.158;7.354;2023-05-01T00:00:25;98081.84;;;13.17;55.26
45247;BME280;31529;51.158;7.354;2023-05-01T00:00:56;98081.53;;;13.18;55.00
45247;BME280;31529;51.158;7.354;2023-05-01T00:01:29;98068.94;;;13.19;55.12
45247;BME280;31529;51.158;7.354;2023-05-01T00:02:01;98077.78;;;13.19;55.36
45247;BME280;31529;51.158;7.354;2023-05-01T00:02:32;98082.06;;;13.20;55.27
45247;BME280;31529;51.158;7.354;2023-05-01T00:03:03;98074.50;;;13.22;55.00
45247;BME280;31529;51.158;7.354;2023-05-01T00:03:34;98077.19;;;13.22;54.69
45247;BME280;31529;51.158;7.354;2023-05-01T00:04:06;98076.06;;;13.23;55.07
45247;BME280;31529;51.158;7.354;2023-05-01T00:04:37;98066.97;;;13.24;54.82
45247;BME280;31529;51.158;7.354;2023-05-01T00:05:08;98078.47;;;13.25;55.08
45247;BME280;31529;51.158;7.354;2023-05-01T00:05:39;98075.50;;;13.26;54.75
45247;BME280;31529;51.158;7.354;2023-05-01T00:06:10;98078.19;;;13.26;54.68
45247;BME280;31529;51.158;7.354;2023-05-01T00:06:41;98072.53;;;13.28;54.82
45247;BME280;31529;51.158;7.354;2023-05-01T00:07:12;98070.91;;;13.27;54.75
45247;BME280;31529;51.158;7.354;2023-05-01T00:07:43;98069.03;;;13.27;54.44
45247;BME280;31529;51.158;7.354;2023-05-01T00:08:14;98065.28;;;13.28;54.56
45247;BME280;31529;51.158;7.354;2023-05-01T00:08:45;98072.19;;;13.29;54.70
45247;BME280;31529;51.158;7.354;2023-05-01T00:09:17;98069.25;;;13.31;54.45
45247;BME280;31529;51.158;7.354;2023-05-01T00:09:48;98068.19;;;13.32;54.48
45247;BME280;31529;51.158;7.354;2023-05-01T00:10:21;98065.50;;;13.32;54.48
45247;BME280;31529;51.158;7.354;2023-05-01T00:10:52;98072.72;;;13.32;54.71
45247;BME280;31529;51.158;7.354;2023-05-01T00:11:23;98064.41;;;13.33;54.43
45247;BME280;31529;51.158;7.354;2023-05-01T00:11:54;98068.97;;;13.33;54.62
45247;BME280;31529;51.158;7.354;2023-05-01T00:12:25;98065.22;;;13.34;54.50
45247;BME280;31529;51.158;7.354;2023-05-01T00:12:56;98061.41;;;13.35;54.40
45247;BME280;31529;51.158;7.354;2023-05-01T00:13:28;98063.81;;;13.36;54.32
45247;BME280;31529;51.158;7.354;2023-05-01T00:13:59;98060.34;;;13.36;54.53
45247;BME280;31529;51.158;7.354;2023-05-01T00:14:30;98061.91;;;13.37;54.58
45247;BME280;31529;51.158;7.354;2023-05-01T00:15:01;98062.69;;;13.37;54.45
45247;BME280;31529;51.158;7.354;2023-05-01T00:15:32;98060.84;;;13.38;54.38
45247;BME280;31529;51.158;7.354;2023-05-01T00:16:07;98062.41;;;13.39;54.15
45247;BME280;31529;51.158;7.354;2023-05-01T00:16:42;98060.22;;;13.41;54.32
45247;BME280;31529;51.158;7.354;2023-05-01T00:17:13;98059.44;;;13.40;54.35
45247;BME280;31529;51.158;7.354;2023-05-01T00:17:44;98051.09;;;13.42;54.46
45247;BME280;31529;51.158;7.354;2023-05-01T00:18:15;98054.56;;;13.42;54.28
45247;BME280;31529;51.158;7.354;2023-05-01T00:18:46;98063.38;;;13.43;54.51
45247;BME280;31529;51.158;7.354;2023-05-01T00:19:17;97980.94;;;12.98;54.48
45247;BME280;31529;51.158;7.354;2023-05-01T00:19:52;98053.97;;;13.45;54.31
45247;BME280;31529;51.158;7.354;2023-05-01T00:20:29;98055.06;;;13.44;54.27
45247;BME280;31529;51.158;7.354;2023-05-01T00:21:01;98055.56;;;13.46;54.46
45247;BME280;31529;51.158;7.354;2023-05-01T00:21:32;98054.75;;;13.46;54.58
45247;BME280;31529;51.158;7.354;2023-05-01T00:22:03;98054.47;;;13.47;54.37
45247;BME280;31529;51.158;7.354;2023-05-01T00:22:34;98050.69;;;13.48;54.63
45247;BME280;31529;51.158;7.354;2023-05-01T00:23:06;98056.84;;;13.49;54.20
45247;BME280;31529;51.158;7.354;2023-05-01T00:23:38;98055.75;;;13.50;54.16
45247;BME280;31529;51.158;7.354;2023-05-01T00:24:09;98053.84;;;13.51;54.36
45247;BME280;31529;51.158;7.354;2023-05-01T00:24:40;98054.66;;;13.51;54.21
45247;BME280;31529;51.158;7.354;2023-05-01T00:25:11;98049.81;;;13.53;54.40
45247;BME280;31529;51.158;7.354;2023-05-01T00:25:42;98043.94;;;13.51;54.29
45247;BME280;31529;51.158;7.354;2023-05-01T00:26:13;98048.50;;;13.51;54.05
45247;BME280;31529;51.158;7.354;2023-05-01T00:26:44;98045.53;;;13.52;53.98
45247;BME280;31529;51.158;7.354;2023-05-01T00:27:15;98050.09;;;13.52;54.28
45247;BME280;31529;51.158;7.354;2023-05-01T00:27:47;98044.44;;;13.53;54.06
45247;BME280;31529;51.158;7.354;2023-05-01T00:28:18;98040.66;;;13.54;53.84
45247;BME280;31529;51.158;7.354;2023-05-01T00:28:49;98044.94;;;13.55;53.90
45247;BME280;31529;51.158;7.354;2023-05-01T00:29:20;98044.94;;;13.55;53.84
45247;BME280;31529;51.158;7.354;2023-05-01T00:29:51;98041.13;;;13.56;53.99
45247;BME280;31529;51.158;7.354;2023-05-01T00:30:23;98048.09;;;13.57;54.12
45247;BME280;31529;51.158;7.354;2023-05-01T00:30:53;98038.97;;;13.58;54.17
45247;BME280;31529;51.158;7.354;2023-05-01T00:31:25;98048.59;;;13.59;54.07
45247;BME280;31529;51.158;7.354;2023-05-01T00:31:56;98042.16;;;13.60;53.75
45247;BME280;31529;51.158;7.354;2023-05-01T00:32:27;98042.16;;;13.60;54.11
45247;BME280;31529;51.158;7.354;2023-05-01T00:32:59;98037.56;;;13.61;53.99
45247;BME280;31529;51.158;7.354;2023-05-01T00:33:31;98038.34;;;13.61;53.79
45247;BME280;31529;51.158;7.354;2023-05-01T00:34:02;98035.69;;;13.61;54.08
45247;BME280;31529;51.158;7.354;2023-05-01T00:34:34;98040.75;;;13.63;53.98
45247;BME280;31529;51.158;7.354;2023-05-01T00:35:05;98036.78;;;13.60;53.86
45247;BME280;31529;51.158;7.354;2023-05-01T00:35:37;98035.69;;;13.61;53.94
45247;BME280;31529;51.158;7.354;2023-05-01T00:36:08;98037.56;;;13.61;53.82
45247;BME280;31529;51.158;7.354;2023-05-01T00:36:39;98035.69;;;13.61;53.79
45247;BME280;31529;51.158;7.354;2023-05-01T00:37:11;98036.47;;;13.62;53.77
45247;BME280;31529;51.158;7.354;2023-05-01T00:37:44;98030.31;;;13.61;54.00
45247;BME280;31529;51.158;7.354;2023-05-01T00:38:15;98035.38;;;13.63;53.85
45247;BME280;31529;51.158;7.354;2023-05-01T00:38:47;98039.97;;;13.62;54.15
45247;BME280;31529;51.158;7.354;2023-05-01T00:39:18;98035.09;;;13.64;54.09
45247;BME280;31529;51.158;7.354;2023-05-01T00:39:49;98038.56;;;13.65;53.96
45247;BME280;31529;51.158;7.354;2023-05-01T00:40:20;98038.56;;;13.65;53.99
45247;BME280;31529;51.158;7.354;2023-05-01T00:40:52;98035.56;;;13.66;53.87
45247;BME280;31529;51.158;7.354;2023-05-01T00:41:23;98032.09;;;13.66;53.96
45247;BME280;31529;51.158;7.354;2023-05-01T00:41:55;98037.16;;;13.67;54.01
45247;BME280;31529;51.158;7.354;2023-05-01T00:42:26;98032.59;;;13.68;54.04
45247;BME280;31529;51.158;7.354;2023-05-01T00:42:57;98033.38;;;13.69;54.13
45247;BME280;31529;51.158;7.354;2023-05-01T00:43:28;98040.31;;;13.70;54.04
45247;BME280;31529;51.158;7.354;2023-05-01T00:44:00;98037.63;;;13.70;53.99
45247;BME280;31529;51.158;7.354;2023-05-01T00:44:31;98031.19;;;13.71;54.24
45247;BME280;31529;51.158;7.354;2023-05-01T00:45:03;98037.34;;;13.71;53.71
45247;BME280;31529;51.158;7.354;2023-05-01T00:45:34;98036.56;;;13.71;53.65
45247;BME280;31529;51.158;7.354;2023-05-01T00:46:06;98030.09;;;13.72;53.91
45247;BME280;31529;51.158;7.354;2023-05-01T00:46:38;98027.72;;;13.70;53.85
45247;BME280;31529;51.158;7.354;2023-05-01T00:47:09;98032.78;;;13.72;53.81
45247;BME280;31529;51.158;7.354;2023-05-01T00:47:40;98030.09;;;13.72;53.74
45247;BME280;31529;51.158;7.354;2023-05-01T00:48:11;98034.38;;;13.73;53.73
45247;BME280;31529;51.158;7.354;2023-05-01T00:48:42;98027.91;;;13.74;53.74
45247;BME280;31529;51.158;7.354;2023-05-01T00:49:14;98025.25;;;13.74;53.96
45247;BME280;31529;51.158;7.354;2023-05-01T00:49:45;98024.41;;;13.73;54.01
45247;BME280;31529;51.158;7.354;2023-05-01T00:50:17;97947.75;;;13.22;53.78
45247;BME280;31529;51.158;7.354;2023-05-01T00:50:48;98032.16;;;13.75;53.91
45247;BME280;31529;51.158;7.354;2023-05-01T00:51:19;98024.13;;;13.75;53.78
45247;BME280;31529;51.158;7.354;2023-05-01T00:51:51;98023.03;;;13.76;53.79
45247;BME280;31529;51.158;7.354;2023-05-01T00:52:23;98027.59;;;13.75;53.86
45247;BME280;31529;51.158;7.354;2023-05-01T00:52:55;98023.03;;;13.76;53.89
45247;BME280;31529;51.158;7.354;2023-05-01T00:53:26;98024.63;;;13.77;54.14
45247;BME280;31529;51.158;7.354;2023-05-01T00:53:59;98024.63;;;13.77;54.11
45247;BME280;31529;51.158;7.354;2023-05-01T00:54:31;98012.81;;;13.78;53.97
45247;BME280;31529;51.158;7.354;2023-05-01T00:55:02;98022.41;;;13.79;53.85
45247;BME280;31529;51.158;7.354;2023-05-01T00:55:35;98023.25;;;13.79;53.82
45247;BME280;31529;51.158;7.354;2023-05-01T00:56:07;98026.69;;;13.80;53.68
45247;BME280;31529;51.158;7.354;2023-05-01T00:56:39;98021.03;;;13.81;53.88
45247;BME280;31529;51.158;7.354;2023-05-01T00:57:10;98020.22;;;13.81;53.81
45247;BME280;31529;51.158;7.354;2023-05-01T00:57:41;98020.22;;;13.81;54.15
45247;BME280;31529;51.158;7.354;2023-05-01T00:58:12;98018.06;;;13.83;54.14
45247;BME280;31529;51.158;7.354;2023-05-01T00:58:49;98014.56;;;13.82;53.98
45247;BME280;31529;51.158;7.354;2023-05-01T00:59:23;98018.84;;;13.83;53.67
45247;BME280;31529;51.158;7.354;2023-05-01T00:59:55;98012.69;;;13.83;53.68
45247;BME280;31529;51.158;7.354;2023-05-01T01:00:26;98020.41;;;13.84;53.72
45247;BME280;31529;51.158;7.354;2023-05-01T01:00:59;98018.56;;;13.85;53.73
45247;BME280;31529;51.158;7.354;2023-05-01T01:01:31;98011.28;;;13.85;53.71
45247;BME280;31529;51.158;7.354;2023-05-01T01:02:02;98012.06;;;13.86;53.87
45247;BME280;31529;51.158;7.354;2023-05-01T01:02:34;98020.91;;;13.86;53.67
45247;BME280;31529;51.158;7.354;2023-05-01T01:03:05;98012.06;;;13.86;53.78
45247;BME280;31529;51.158;7.354;2023-05-01T01:03:36;98012.06;;;13.86;53.40
45247;BME280;31529;51.158;7.354;2023-05-01T01:04:07;98009.41;;;13.86;53.69
45247;BME280;31529;51.158;7.354;2023-05-01T01:04:39;98010.19;;;13.86;53.85
45247;BME280;31529;51.158;7.354;2023-05-01T01:05:12;98013.69;;;13.87;53.87
45247;BME280;31529;51.158;7.354;2023-05-01T01:05:50;98010.19;;;13.86;53.89
45247;BME280;31529;51.158;7.354;2023-05-01T01:07:50;98015.25;;;13.88;53.63
45247;BME280;31529;51.158;7.354;2023-05-01T01:08:45;98009.88;;;13.88;53.82
45247;BME280;31529;51.158;7.354;2023-05-01T01:09:27;98006.13;;;13.89;53.60
45247;BME280;31529;51.158;7.354;2023-05-01T01:10:21;98001.53;;;13.90;53.59
45247;BME280;31529;51.158;7.354;2023-05-01T01:11:01;98004.22;;;13.90;53.53
45247;BME280;31529;51.158;7.354;2023-05-01T01:11:42;97999.63;;;13.90;53.72
45247;BME280;31529;51.158;7.354;2023-05-01T01:13:33;97995.69;;;12.54;56.53
45247;BME280;31529;51.158;7.354;2023-05-01T01:14:14;97995.44;;;12.37;57.47
45247;BME280;31529;51.158;7.354;2023-05-01T01:16:36;97994.56;;;12.08;58.98
45247;BME280;31529;51.158;7.354;2023-05-01T01:17:19;97990.38;;;12.02;59.20
45247;BME280;31529;51.158;7.354;2023-05-01T01:18:03;97988.81;;;12.01;59.42
45247;BME280;31529;51.158;7.354;2023-05-01T01:18:42;97993.94;;;11.98;59.67
45247;BME280;31529;51.158;7.354;2023-05-01T01:20:45;97990.53;;;11.92;59.95
45247;BME280;31529;51.158;7.354;2023-05-01T01:21:40;97988.94;;;11.91;59.71
45247;BME280;31529;51.158;7.354;2023-05-01T01:22:14;97987.38;;;11.90;60.28
45247;BME280;31529;51.158;7.354;2023-05-01T01:23:05;97990.28;;;11.88;60.51
45247;BME280;31529;51.158;7.354;2023-05-01T01:26:03;97985.22;;;11.87;61.11
45247;BME280;31529;51.158;7.354;2023-05-01T01:32:41;97983.16;;;11.84;61.12
45247;BME280;31529;51.158;7.354;2023-05-01T01:33:24;97983.16;;;11.84;61.26
45247;BME280;31529;51.158;7.354;2023-05-01T01:34:13;97978.09;;;11.82;61.18
45247;BME280;31529;51.158;7.354;2023-05-01T01:34:49;97983.44;;;11.82;61.61
45247;BME280;31529;51.158;7.354;2023-05-01T01:35:25;97908.47;;;11.36;61.77
45247;BME280;31529;51.158;7.354;2023-05-01T01:35:57;97986.13;;;11.82;61.56
45247;BME280;31529;51.158;7.354;2023-05-01T01:36:39;97985.31;;;11.82;61.60
45247;BME280;31529;51.158;7.354;2023-05-01T01:38:05;97979.94;;;11.82;61.80
45247;BME280;31529;51.158;7.354;2023-05-01T01:38:45;97981.84;;;11.81;61.79
45247;BME280;31529;51.158;7.354;2023-05-01T01:39:29;97979.94;;;11.82;61.87
45247;BME280;31529;51.158;7.354;2023-05-01T01:40:14;97982.72;;;12.75;59.25
45247;BME280;31529;51.158;7.354;2023-05-01T01:40:56;97983.19;;;13.05;58.39
45247;BME280;31529;51.158;7.354;2023-05-01T01:41:32;97978.84;;;13.23;57.51
45247;BME280;31529;51.158;7.354;2023-05-01T01:42:05;97972.50;;;13.33;57.09
45247;BME280;31529;51.158;7.354;2023-05-01T01:42:43;97981.72;;;13.40;56.53
45247;BME280;31529;51.158;7.354;2023-05-01T01:43:25;97830.72;;;12.44;56.14
45247;BME280;31529;51.158;7.354;2023-05-01T01:44:24;97966.31;;;13.46;56.11
45247;BME280;31529;51.158;7.354;2023-05-01T01:44:59;97971.94;;;13.58;55.70
45247;BME280;31529;51.158;7.354;2023-05-01T01:45:45;97983.66;;;13.62;55.66
45247;BME280;31529;51.158;7.354;2023-05-01T01:46:19;97978.00;;;13.64;55.28
45247;BME280;31529;51.158;7.354;2023-05-01T01:46:53;97973.91;;;13.66;55.26
45247;BME280;31529;51.158;7.354;2023-05-01T01:47:25;97897.00;;;13.17;55.02
45247;BME280;31529;51.158;7.354;2023-05-01T01:48:01;97972.50;;;13.69;55.36
45247;BME280;31529;51.158;7.354;2023-05-01T01:48:35;97971.72;;;13.69;55.42
45247;BME280;31529;51.158;7.354;2023-05-01T01:49:10;97969.81;;;13.69;55.16
45247;BME280;31529;51.158;7.354;2023-05-01T01:49:48;97971.41;;;13.70;55.28
45247;BME280;31529;51.158;7.354;2023-05-01T01:50:23;97971.41;;;13.70;55.05
45247;BME280;31529;51.158;7.354;2023-05-01T01:50:57;97973.81;;;13.72;54.91
45247;BME280;31529;51.158;7.354;2023-05-01T01:51:29;97962.25;;;13.71;54.79
45247;BME280;31529;51.158;7.354;2023-05-01T01:52:01;97963.84;;;13.72;54.81
45247;BME280;31529;51.158;7.354;2023-05-01T01:52:36;97965.44;;;13.73;54.76
45247;BME280;31529;51.158;7.354;2023-05-01T01:53:10;97965.44;;;13.73;55.03
45247;BME280;31529;51.158;7.354;2023-05-01T01:53:50;97971.59;;;13.74;54.86
45247;BME280;31529;51.158;7.354;2023-05-01T01:54:34;97976.97;;;13.74;54.71
45247;BME280;31529;51.158;7.354;2023-05-01T01:55:11;97961.19;;;13.72;54.75
45247;BME280;31529;51.158;7.354;2023-05-01T01:55:44;97960.88;;;13.74;54.74
45247;BME280;31529;51.158;7.354;2023-05-01T01:56:17;97964.34;;;13.74;54.86
45247;BME280;31529;51.158;7.354;2023-05-01T01:56:51;97961.66;;;13.74;54.57
45247;BME280;31529;51.158;7.354;2023-05-01T01:57:24;97957.09;;;13.75;54.46
45247;BME280;31529;51.158;7.354;2023-05-01T01:57:56;97958.69;;;13.76;54.44
45247;BME280;31529;51.158;7.354;2023-05-01T01:58:29;97959.47;;;13.76;54.47
45247;BME280;31529;51.158;7.354;2023-05-01T01:59:02;97956.78;;;13.76;54.71
45247;BME280;31529;51.158;7.354;2023-05-01T01:59:35;97964.53;;;13.78;54.66
45247;BME280;31529;51.158;7.354;2023-05-01T02:00:06;97951.13;;;13.78;54.22
45247;BME280;31529;51.158;7.354;2023-05-01T02:00:40;97956.50;;;13.78;54.31
45247;BME280;31529;51.158;7.354;2023-05-01T02:01:15;97958.88;;;13.79;54.39
45247;BME280;31529;51.158;7.354;2023-05-01T02:01:49;97958.06;;;13.79;54.21
45247;BME280;31529;51.158;7.354;2023-05-01T02:02:20;97952.69;;;13.79;54.02
45247;BME280;31529;51.158;7.354;2023-05-01T02:02:53;97951.63;;;13.80;54.22
45247;BME280;31529;51.158;7.354;2023-05-01T02:03:25;97955.06;;;13.80;53.98
45247;BME280;31529;51.158;7.354;2023-05-01T02:03:57;97956.19;;;13.79;54.00
45247;BME280;31529;51.158;7.354;2023-05-01T02:04:30;97948.94;;;13.80;54.44
45247;BME280;31529;51.158;7.354;2023-05-01T02:05:02;97947.03;;;13.80;54.27
45247;BME280;31529;51.158;7.354;2023-05-01T02:05:37;97949.41;;;13.82;54.07
45247;BME280;31529;51.158;7.354;2023-05-01T02:06:10;97946.72;;;13.82;54.21
45247;BME280;31529;51.158;7.354;2023-05-01T02:06:43;97950.19;;;13.82;54.13
45247;BME280;31529;51.158;7.354;2023-05-01T02:07:15;97942.16;;;13.82;54.41
45247;BME280;31529;51.158;7.354;2023-05-01T02:07:48;97940.41;;;13.78;54.04
45247;BME280;31529;51.158;7.354;2023-05-01T02:08:21;97950.50;;;13.81;53.74
45247;BME280;31529;51.158;7.354;2023-05-01T02:08:54;97948.34;;;13.83;53.78
45247;BME280;31529;51.158;7.354;2023-05-01T02:09:28;97943.75;;;13.83;54.07
45247;BME280;31529;51.158;7.354;2023-05-01T02:10:00;97944.53;;;13.84;53.81
45247;BME280;31529;51.158;7.354;2023-05-01T02:10:35;97939.66;;;13.86;54.13
45247;BME280;31529;51.158;7.354;2023-05-01T02:11:07;97943.94;;;13.87;53.86
45247;BME280;31529;51.158;7.354;2023-05-01T02:11:40;97943.13;;;13.86;54.05
45247;BME280;31529;51.158;7.354;2023-05-01T02:12:13;97949.31;;;13.87;53.74
45247;BME280;31529;51.158;7.354;2023-05-01T02:12:48;97942.34;;;13.86;54.02
45247;BME280;31529;51.158;7.354;2023-05-01T02:13:22;97947.69;;;13.86;53.78
45247;BME280;31529;51.158;7.354;2023-05-01T02:13:54;97938.88;;;13.85;53.98
45247;BME280;31529;51.158;7.354;2023-05-01T02:14:27;97945.81;;;13.86;53.73
45247;BME280;31529;51.158;7.354;2023-05-01T02:14:58;97943.13;;;13.86;53.95
45247;BME280;31529;51.158;7.354;2023-05-01T02:15:30;97862.81;;;13.36;54.00
45247;BME280;31529;51.158;7.354;2023-05-01T02:16:03;97936.97;;;13.86;53.79
45247;BME280;31529;51.158;7.354;2023-05-01T02:16:36;97938.38;;;13.83;54.02
45247;BME280;31529;51.158;7.354;2023-05-01T02:17:08;97941.84;;;13.84;53.74
45247;BME280;31529;51.158;7.354;2023-05-01T02:17:40;97939.16;;;13.84;53.42
45247;BME280;31529;51.158;7.354;2023-05-01T02:18:11;97938.09;;;13.85;53.80
45247;BME280;31529;51.158;7.354;2023-05-01T02:18:45;97934.28;;;13.86;53.80
45247;BME280;31529;51.158;7.354;2023-05-01T02:19:16;97927.38;;;13.85;53.86
45247;BME280;31529;51.158;7.354;2023-05-01T02:19:49;97935.41;;;13.85;53.76
45247;BME280;31529;51.158;7.354;2023-05-01T02:20:22;97938.09;;;13.85;53.95
45247;BME280;31529;51.158;7.354;2023-05-01T02:20:56;97930.81;;;13.85;53.64
45247;BME280;31529;51.158;7.354;2023-05-01T02:21:32;97935.41;;;13.85;53.80
45247;BME280;31529;51.158;7.354;2023-05-01T02:22:06;97932.72;;;13.85;53.88
45247;BME280;31529;51.158;7.354;2023-05-01T02:22:39;97932.72;;;13.85;53.77
45247;BME280;31529;51.158;7.354;2023-05-01T02:23:10;97928.44;;;13.84;54.11
45247;BME280;31529;51.158;7.354;2023-05-01T02:23:42;97933.81;;;13.84;54.06
45247;BME280;31529;51.158;7.354;2023-05-01T02:24:14;97933.03;;;13.83;53.69
45247;BME280;31529;51.158;7.354;2023-05-01T02:24:45;97933.03;;;13.83;53.55
45247;BME280;31529;51.158;7.354;2023-05-01T02:25:18;97933.03;;;13.83;53.69
45247;BME280;31529;51.158;7.354;2023-05-01T02:25:49;97929.22;;;13.84;53.53
45247;BME280;31529;51.158;7.354;2023-05-01T02:26:24;97930.03;;;13.85;53.46
45247;BME280;31529;51.158;7.354;2023-05-01T02:26:56;97927.19;;;13.81;53.69
45247;BME280;31529;51.158;7.354;2023-05-01T02:27:42;97929.03;;;13.81;53.64
45247;BME280;31529;51.158;7.354;2023-05-01T02:28:17;97930.66;;;13.82;53.59
45247;BME280;31529;51.158;7.354;2023-05-01T02:28:53;97927.19;;;13.81;53.76
45247;BME280;31529;51.158;7.354;2023-05-01T02:29:24;97927.97;;;13.82;53.48
45247;BME280;31529;51.158;7.354;2023-05-01T02:29:56;97930.66;;;13.82;53.61
45247;BME280;31529;51.158;7.354;2023-05-01T02:30:27;97925.56;;;13.80;53.52
45247;BME280;31529;51.158;7.354;2023-05-01T02:30:58;97926.06;;;13.82;53.60
45247;BME280;31529;51.158;7.354;2023-05-01T02:31:29;97922.91;;;13.80;53.51
45247;BME280;31529;51.158;7.354;2023-05-01T02:32:01;97924.50;;;13.81;53.60
45247;BME280;31529;51.158;7.354;2023-05-01T02:32:32;97925.28;;;13.82;53.54
45247;BME280;31529;51.158;7.354;2023-05-01T02:33:03;97929.03;;;13.81;53.75
45247;BME280;31529;51.158;7.354;2023-05-01T02:33:37;97927.47;;;13.80;53.50
45247;BME280;31529;51.158;7.354;2023-05-01T02:34:08;97923.38;;;13.82;53.34
45247;BME280;31529;51.158;7.354;2023-05-01T02:34:39;97922.59;;;13.82;53.73
45247;BME280;31529;51.158;7.354;2023-05-01T02:35:10;97922.59;;;13.82;53.60
45247;BME280;31529;51.158;7.354;2023-05-01T02:35:41;97916.44;;;13.81;53.30
45247;BME280;31529;51.158;7.354;2023-05-01T02:36:14;97917.22;;;13.82;53.66
45247;BME280;31529;51.158;7.354;2023-05-01T02:36:45;97918.31;;;13.81;53.26
45247;BME280;31529;51.158;7.354;2023-05-01T02:37:16;97920.22;;;13.80;53.30
45247;BME280;31529;51.158;7.354;2023-05-01T02:37:47;97917.53;;;13.80;53.24
45247;BME280;31529;51.158;7.354;2023-05-01T02:38:18;97915.63;;;13.81;53.48
45247;BME280;31529;51.158;7.354;2023-05-01T02:38:49;97923.69;;;13.81;53.47
45247;BME280;31529;51.158;7.354;2023-05-01T02:39:21;97912.16;;;13.80;53.44
45247;BME280;31529;51.158;7.354;2023-05-01T02:39:52;97914.84;;;13.80;53.52
45247;BME280;31529;51.158;7.354;2023-05-01T02:40:24;97914.06;;;13.80;53.37
45247;BME280;31529;51.158;7.354;2023-05-01T02:40:56;97910.59;;;13.79;53.42
45247;BME280;31529;51.158;7.354;2023-05-01T02:41:28;97915.97;;;13.79;53.53
45247;BME280;31529;51.158;7.354;2023-05-01T02:42:00;97917.84;;;13.79;53.30
45247;BME280;31529;51.158;7.354;2023-05-01T02:42:33;97909.78;;;13.79;53.36
45247;BME280;31529;51.158;7.354;2023-05-01T02:43:05;97915.16;;;13.79;53.22
45247;BME280;31529;51.158;7.354;2023-05-01T02:43:41;97914.66;;;13.77;53.40
45247;BME280;31529;51.158;7.354;2023-05-01T02:44:13;97912.81;;;13.77;53.52
45247;BME280;31529;51.158;7.354;2023-05-01T02:44:47;97911.97;;;13.77;53.19
45247;BME280;31529;51.158;7.354;2023-05-01T02:45:23;97915.78;;;13.76;53.46
45247;BME280;31529;51.158;7.354;2023-05-01T02:45:55;97905.06;;;13.76;53.33
45247;BME280;31529;51.158;7.354;2023-05-01T02:46:28;97912.28;;;13.75;53.73
45247;BME280;31529;51.158;7.354;2023-05-01T02:47:01;97907.25;;;13.74;53.43
45247;BME280;31529;51.158;7.354;2023-05-01T02:47:34;97838.28;;;13.29;53.28
45247;BME280;31529;51.158;7.354;2023-05-01T02:48:09;97911.81;;;13.73;53.34
45247;BME280;31529;51.158;7.354;2023-05-01T02:48:45;97912.63;;;13.74;53.48
45247;BME280;31529;51.158;7.354;2023-05-01T02:49:16;97910.72;;;13.74;53.37
45247;BME280;31529;51.158;7.354;2023-05-01T02:49:48;97906.44;;;13.73;53.25
45247;BME280;31529;51.158;7.354;2023-05-01T02:50:21;97909.94;;;13.74;53.23
45247;BME280;31529;51.158;7.354;2023-05-01T02:50:53;97907.84;;;13.71;53.29
45247;BME280;31529;51.158;7.354;2023-05-01T02:51:26;97901.69;;;13.70;53.40
45247;BME280;31529;51.158;7.354;2023-05-01T02:51:59;97903.56;;;13.70;53.24
45247;BME280;31529;51.158;7.354;2023-05-01T02:52:31;97909.75;;;13.70;53.26
45247;BME280;31529;51.158;7.354;2023-05-01T02:53:02;97912.44;;;13.70;53.07
45247;BME280;31529;51.158;7.354;2023-05-01T02:53:33;97904.38;;;13.70;53.54
45247;BME280;31529;51.158;7.354;2023-05-01T02:54:05;97900.88;;;13.70;53.38
45247;BME280;31529;51.158;7.354;2023-05-01T02:54:37;97900.88;;;13.70;53.21
45247;BME280;31529;51.158;7.354;2023-05-01T02:55:08;97906.25;;;13.70;53.32
45247;BME280;31529;51.158;7.354;2023-05-01T02:55:40;97902.00;;;13.69;53.39
45247;BME280;31529;51.158;7.354;2023-05-01T02:56:12;97899.31;;;13.69;53.62
45247;BME280;31529;51.158;7.354;2023-05-01T02:56:44;97895.03;;;13.67;53.71
45247;BME280;31529;51.158;7.354;2023-05-01T02:57:15;97897.72;;;13.67;53.46
45247;BME280;31529;51.158;7.354;2023-05-01T02:57:49;97898.84;;;13.66;53.47
45247;BME280;31529;51.158;7.354;2023-05-01T02:58:20;97903.41;;;13.66;53.61
45247;BME280;31529;51.158;7.354;2023-05-01T02:58:52;97897.22;;;13.65;53.45
45247;BME280;31529;51.158;7.354;2023-05-01T02:59:23;97897.22;;;13.65;53.69
45247;BME280;31529;51.158;7.354;2023-05-01T02:59:54;97897.56;;;13.64;53.57
45247;BME280;31529;51.158;7.354;2023-05-01T03:00:26;97900.25;;;13.64;53.58
45247;BME280;31529;51.158;7.354;2023-05-01T03:00:57;97896.75;;;13.63;53.55
45247;BME280;31529;51.158;7.354;2023-05-01T03:01:28;97894.06;;;13.63;53.70
45247;BME280;31529;51.158;7.354;2023-05-01T03:01:59;97899.44;;;13.63;53.64
45247;BME280;31529;51.158;7.354;2023-05-01T03:02:30;97894.06;;;13.63;53.70
45247;BME280;31529;51.158;7.354;2023-05-01T03:03:01;97894.06;;;13.63;53.62
45247;BME280;31529;51.158;7.354;2023-05-01T03:03:32;97891.69;;;13.62;53.23
45247;BME280;31529;51.158;7.354;2023-05-01T03:04:04;97893.59;;;13.61;53.37
45247;BME280;31529;51.158;7.354;2023-05-01T03:04:35;97887.13;;;13.62;53.43
45247;BME280;31529;51.158;7.354;2023-05-01T03:05:06;97889.00;;;13.62;53.37
45247;BME280;31529;51.158;7.354;2023-05-01T03:05:37;97886.31;;;13.62;53.51
45247;BME280;31529;51.158;7.354;2023-05-01T03:06:09;97891.69;;;13.62;53.27
45247;BME280;31529;51.158;7.354;2023-05-01T03:06:40;97887.13;;;13.62;53.51
45247;BME280;31529;51.158;7.354;2023-05-01T03:07:11;97887.13;;;13.62;53.36
45247;BME280;31529;51.158;7.354;2023-05-01T03:07:42;97889.81;;;13.62;53.51
45247;BME280;31529;51.158;7.354;2023-05-01T03:08:13;97884.47;;;13.62;53.67
45247;BME280;31529;51.158;7.354;2023-05-01T03:08:44;97893.59;;;13.61;53.67
45247;BME280;31529;51.158;7.354;2023-05-01T03:09:17;97882.06;;;13.61;53.61
45247;BME280;31529;51.158;7.354;2023-05-01T03:09:48;97884.28;;;13.59;53.88
45247;BME280;31529;51.158;7.354;2023-05-01T03:10:20;97885.34;;;13.58;53.76
45247;BME280;31529;51.158;7.354;2023-05-01T03:10:51;97879.50;;;13.56;53.92
45247;BME280;31529;51.158;7.354;2023-05-01T03:11:22;97884.09;;;13.55;53.62